TUA536 VIDP-UTAA
Flight info
| Callsign | TUA536 |
|---|---|
| Flight time | 3h 0m |
| Altitude | 38000 |
| Route | N0460F380 OROTI A589 BUTOP M875 JHANG A466 LEBIB M875 DI J145 REGET N644 LEMOD A909 NINOP A125 KEMOR |
| Aircraft | B738/M-VGDW/C |
Departure
| Time | 2026-05-04 16:23 |
|---|---|
| Airport | Indira Gandhi International Airport (VIDP) |
Arrival
| Time | 2026-05-04 19:23 |
|---|---|
| Airport | Ashgabat International Airport (UTAA) |
| Time | Latitude | Longitude | Altitude | Speed | Heading |
|---|---|---|---|---|---|
| 2026-05-04 15:37 | 28.56047 | 77.08305 | 780 ft | 0 kts | 240° |
| 2026-05-04 16:11 | 28.56061 | 77.08335 | 780 ft | 2 kts | 240° |
| 2026-05-04 16:11 | 28.56069 | 77.08350 | 780 ft | 2 kts | 240° |
| 2026-05-04 16:12 | 28.56070 | 77.08395 | 780 ft | 1 kts | 322° |
| 2026-05-04 16:12 | 28.56063 | 77.08401 | 780 ft | 0 kts | 329° |
| 2026-05-04 16:14 | 28.56063 | 77.08400 | 780 ft | 1 kts | 329° |
| 2026-05-04 16:15 | 28.56229 | 77.08289 | 780 ft | 11 kts | 330° |
| 2026-05-04 16:16 | 28.56317 | 77.08187 | 780 ft | 8 kts | 285° |
| 2026-05-04 16:16 | 28.56229 | 77.08047 | 780 ft | 12 kts | 194° |
| 2026-05-04 16:17 | 28.56049 | 77.07994 | 780 ft | 12 kts | 194° |
| 2026-05-04 16:18 | 28.55749 | 77.07906 | 780 ft | 15 kts | 195° |
| 2026-05-04 16:18 | 28.55644 | 77.07875 | 780 ft | 14 kts | 194° |
| 2026-05-04 16:19 | 28.55372 | 77.07796 | 780 ft | 12 kts | 195° |
| 2026-05-04 16:19 | 28.55208 | 77.07747 | 780 ft | 11 kts | 195° |
| 2026-05-04 16:20 | 28.55073 | 77.07614 | 780 ft | 11 kts | 283° |
| 2026-05-04 16:20 | 28.55124 | 77.07395 | 780 ft | 14 kts | 284° |
| 2026-05-04 16:21 | 28.55050 | 77.07222 | 780 ft | 10 kts | 193° |
| 2026-05-04 16:22 | 28.54931 | 77.07221 | 780 ft | 7 kts | 118° |
| 2026-05-04 16:22 | 28.54766 | 77.07973 | 780 ft | 108 kts | 104° |
| 2026-05-04 16:23 | 28.53934 | 77.11656 | 1969 ft | 172 kts | 109° |
| 2026-05-04 16:24 | 28.48810 | 77.12642 | 3360 ft | 242 kts | 188° |
| 2026-05-04 16:25 | 28.45547 | 77.11178 | 4196 ft | 273 kts | 228° |
| 2026-05-04 16:26 | 28.46508 | 77.03245 | 6947 ft | 276 kts | 304° |
| 2026-05-04 16:26 | 28.49691 | 76.97761 | 9105 ft | 281 kts | 302° |
| 2026-05-04 16:27 | 28.51759 | 76.93963 | 10405 ft | 292 kts | 302° |
| 2026-05-04 16:28 | 28.55193 | 76.87608 | 11675 ft | 334 kts | 302° |
| 2026-05-04 16:28 | 28.58928 | 76.80695 | 13632 ft | 350 kts | 302° |
| 2026-05-04 16:29 | 28.64061 | 76.71162 | 16620 ft | 361 kts | 301° |
| 2026-05-04 16:30 | 28.68026 | 76.63789 | 18653 ft | 369 kts | 300° |
| 2026-05-04 16:31 | 28.70721 | 76.58775 | 19936 ft | 374 kts | 300° |
| 2026-05-04 16:31 | 28.74812 | 76.51161 | 21767 ft | 380 kts | 299° |
| 2026-05-04 16:32 | 28.78985 | 76.43365 | 23413 ft | 388 kts | 299° |
| 2026-05-04 16:33 | 28.81789 | 76.38114 | 24420 ft | 394 kts | 299° |
| 2026-05-04 16:33 | 28.84615 | 76.32814 | 25359 ft | 399 kts | 299° |
| 2026-05-04 16:34 | 28.87541 | 76.27322 | 26252 ft | 406 kts | 299° |
| 2026-05-04 16:34 | 28.88993 | 76.24596 | 26714 ft | 408 kts | 299° |
| 2026-05-04 16:35 | 28.93449 | 76.16213 | 27971 ft | 415 kts | 300° |
| 2026-05-04 16:35 | 28.97944 | 76.07733 | 29203 ft | 421 kts | 300° |
| 2026-05-04 16:36 | 28.99477 | 76.04838 | 29533 ft | 424 kts | 300° |
| 2026-05-04 16:36 | 29.02521 | 75.99088 | 30239 ft | 428 kts | 300° |
| 2026-05-04 16:37 | 29.05629 | 75.93214 | 30686 ft | 438 kts | 300° |
| 2026-05-04 16:37 | 29.07211 | 75.90219 | 31003 ft | 440 kts | 300° |
| 2026-05-04 16:37 | 29.10320 | 75.84323 | 31648 ft | 443 kts | 300° |
| 2026-05-04 16:38 | 29.13451 | 75.78377 | 32662 ft | 435 kts | 299° |
| 2026-05-04 16:39 | 29.18004 | 75.69727 | 34515 ft | 416 kts | 298° |
| 2026-05-04 16:39 | 29.20985 | 75.64041 | 35271 ft | 413 kts | 298° |
| 2026-05-04 16:40 | 29.23918 | 75.58435 | 35810 ft | 413 kts | 298° |
| 2026-05-04 16:40 | 29.26892 | 75.52741 | 35812 ft | 418 kts | 298° |
| 2026-05-04 16:41 | 29.33906 | 75.38418 | 35804 ft | 415 kts | 301° |
| 2026-05-04 16:43 | 29.42515 | 75.25023 | 35808 ft | 418 kts | 304° |
| 2026-05-04 16:43 | 29.47737 | 75.17024 | 35806 ft | 416 kts | 304° |
| 2026-05-04 16:45 | 29.58074 | 75.00970 | 35817 ft | 418 kts | 303° |
| 2026-05-04 16:46 | 29.66655 | 74.87575 | 35811 ft | 417 kts | 303° |
| 2026-05-04 16:47 | 29.73524 | 74.76831 | 35805 ft | 418 kts | 304° |
| 2026-05-04 16:48 | 29.80392 | 74.66047 | 35809 ft | 418 kts | 304° |
| 2026-05-04 16:49 | 29.87252 | 74.55256 | 35806 ft | 416 kts | 304° |
| 2026-05-04 16:50 | 29.94095 | 74.44457 | 35794 ft | 415 kts | 304° |
| 2026-05-04 16:51 | 29.99223 | 74.36353 | 35792 ft | 418 kts | 304° |
| 2026-05-04 16:52 | 30.06070 | 74.25495 | 35786 ft | 418 kts | 304° |
| 2026-05-04 16:53 | 30.11186 | 74.17367 | 35788 ft | 418 kts | 304° |
| 2026-05-04 16:54 | 30.18012 | 74.06500 | 35780 ft | 415 kts | 304° |
| 2026-05-04 16:55 | 30.28176 | 73.90281 | 35794 ft | 416 kts | 304° |
| 2026-05-04 16:56 | 30.36635 | 73.76760 | 35795 ft | 413 kts | 304° |
| 2026-05-04 16:57 | 30.41688 | 73.68664 | 35794 ft | 414 kts | 304° |
| 2026-05-04 16:58 | 30.48413 | 73.57867 | 35799 ft | 415 kts | 304° |
| 2026-05-04 17:00 | 30.58489 | 73.41628 | 35787 ft | 412 kts | 304° |
| 2026-05-04 17:01 | 30.66843 | 73.28118 | 35795 ft | 413 kts | 303° |
| 2026-05-04 17:02 | 30.73526 | 73.17276 | 35802 ft | 411 kts | 304° |
| 2026-05-04 17:03 | 30.78504 | 73.09182 | 35797 ft | 411 kts | 303° |
| 2026-05-04 17:03 | 30.83497 | 73.01054 | 35804 ft | 411 kts | 303° |
| 2026-05-04 17:04 | 30.90131 | 72.90220 | 35810 ft | 412 kts | 303° |
| 2026-05-04 17:05 | 30.96782 | 72.79337 | 35813 ft | 412 kts | 303° |
| 2026-05-04 17:06 | 31.01743 | 72.71196 | 35807 ft | 415 kts | 304° |
| 2026-05-04 17:07 | 31.06157 | 72.63939 | 35820 ft | 410 kts | 303° |
| 2026-05-04 17:07 | 31.10003 | 72.57604 | 35814 ft | 412 kts | 303° |
| 2026-05-04 17:08 | 31.14968 | 72.49408 | 35820 ft | 410 kts | 304° |
| 2026-05-04 17:09 | 31.18248 | 72.43985 | 35823 ft | 410 kts | 304° |
| 2026-05-04 17:09 | 31.21529 | 72.38554 | 35818 ft | 410 kts | 304° |
| 2026-05-04 17:10 | 31.29320 | 72.24725 | 35824 ft | 408 kts | 297° |
| 2026-05-04 17:11 | 31.31979 | 72.18864 | 35820 ft | 408 kts | 297° |
| 2026-05-04 17:12 | 31.35971 | 72.10073 | 35811 ft | 408 kts | 297° |
| 2026-05-04 17:13 | 31.42678 | 71.95512 | 35784 ft | 408 kts | 298° |
| 2026-05-04 17:14 | 31.48056 | 71.83835 | 35831 ft | 409 kts | 297° |
| 2026-05-04 17:15 | 31.52081 | 71.75076 | 35836 ft | 406 kts | 297° |
| 2026-05-04 17:16 | 31.57407 | 71.63451 | 35834 ft | 407 kts | 297° |
| 2026-05-04 17:17 | 31.62745 | 71.51762 | 35835 ft | 408 kts | 298° |
| 2026-05-04 17:18 | 31.68073 | 71.40048 | 35842 ft | 408 kts | 298° |
| 2026-05-04 17:19 | 31.73377 | 71.28350 | 35846 ft | 406 kts | 297° |
| 2026-05-04 17:20 | 31.78658 | 71.16663 | 35848 ft | 407 kts | 298° |
| 2026-05-04 17:20 | 31.82635 | 71.07841 | 35842 ft | 408 kts | 297° |
| 2026-05-04 17:21 | 31.87923 | 70.96083 | 35839 ft | 407 kts | 298° |
| 2026-05-04 17:22 | 31.90579 | 70.90222 | 35848 ft | 408 kts | 300° |
| 2026-05-04 17:23 | 31.97211 | 70.79377 | 35837 ft | 409 kts | 307° |
| 2026-05-04 17:24 | 32.02452 | 70.71501 | 35862 ft | 407 kts | 307° |
| 2026-05-04 17:25 | 32.09392 | 70.60931 | 35872 ft | 408 kts | 307° |
| 2026-05-04 17:26 | 32.16295 | 70.50341 | 35872 ft | 407 kts | 307° |
| 2026-05-04 17:27 | 32.24910 | 70.37085 | 35911 ft | 406 kts | 307° |
| 2026-05-04 17:28 | 32.31796 | 70.26450 | 35942 ft | 406 kts | 307° |
| 2026-05-04 17:29 | 32.42131 | 70.10649 | 36007 ft | 407 kts | 308° |
| 2026-05-04 17:31 | 32.50898 | 69.97559 | 36060 ft | 405 kts | 308° |
| 2026-05-04 17:32 | 32.59611 | 69.84443 | 36176 ft | 405 kts | 308° |
| 2026-05-04 17:33 | 32.66548 | 69.73962 | 36294 ft | 404 kts | 308° |
| 2026-05-04 17:34 | 32.73430 | 69.63547 | 36293 ft | 403 kts | 308° |
| 2026-05-04 17:35 | 32.82034 | 69.50471 | 36277 ft | 400 kts | 308° |
| 2026-05-04 17:36 | 32.85474 | 69.45233 | 36253 ft | 402 kts | 308° |
| 2026-05-04 17:36 | 32.88902 | 69.39999 | 36253 ft | 400 kts | 308° |
| 2026-05-04 17:37 | 32.92309 | 69.34776 | 36288 ft | 401 kts | 308° |
| 2026-05-04 17:37 | 32.95720 | 69.29533 | 36271 ft | 400 kts | 308° |
| 2026-05-04 17:38 | 32.99117 | 69.24303 | 36311 ft | 400 kts | 308° |
| 2026-05-04 17:38 | 33.02524 | 69.19054 | 36334 ft | 400 kts | 308° |
| 2026-05-04 17:39 | 33.07602 | 69.11221 | 36339 ft | 400 kts | 308° |
| 2026-05-04 17:39 | 33.10996 | 69.05979 | 36340 ft | 398 kts | 308° |
| 2026-05-04 17:40 | 33.14319 | 69.00837 | 36331 ft | 399 kts | 308° |
| 2026-05-04 17:40 | 33.17685 | 68.95616 | 36324 ft | 398 kts | 308° |
| 2026-05-04 17:41 | 33.21064 | 68.90371 | 36319 ft | 399 kts | 308° |
| 2026-05-04 17:41 | 33.24419 | 68.85155 | 36304 ft | 397 kts | 308° |
| 2026-05-04 17:42 | 33.27794 | 68.79905 | 36303 ft | 401 kts | 308° |
| 2026-05-04 17:42 | 33.31337 | 68.74764 | 36306 ft | 399 kts | 311° |
| 2026-05-04 17:43 | 33.34963 | 68.69794 | 36305 ft | 398 kts | 311° |
| 2026-05-04 17:43 | 33.38604 | 68.64785 | 36302 ft | 399 kts | 311° |
| 2026-05-04 17:44 | 33.42224 | 68.59757 | 36304 ft | 399 kts | 310° |
| 2026-05-04 17:44 | 33.45820 | 68.54733 | 36311 ft | 399 kts | 310° |
| 2026-05-04 17:45 | 33.49419 | 68.49687 | 36310 ft | 400 kts | 310° |
| 2026-05-04 17:45 | 33.53017 | 68.44633 | 36333 ft | 399 kts | 310° |
| 2026-05-04 17:46 | 33.56597 | 68.39570 | 36354 ft | 399 kts | 310° |
| 2026-05-04 17:46 | 33.60117 | 68.34420 | 36369 ft | 399 kts | 309° |
| 2026-05-04 17:47 | 33.63613 | 68.29256 | 36372 ft | 400 kts | 309° |
| 2026-05-04 17:47 | 33.67092 | 68.24122 | 36390 ft | 400 kts | 309° |
| 2026-05-04 17:48 | 33.70598 | 68.18961 | 36409 ft | 399 kts | 309° |
| 2026-05-04 17:48 | 33.74112 | 68.13787 | 36402 ft | 398 kts | 309° |
| 2026-05-04 17:49 | 33.77596 | 68.08649 | 36430 ft | 400 kts | 309° |
| 2026-05-04 17:49 | 33.81100 | 68.03475 | 36433 ft | 401 kts | 309° |
| 2026-05-04 17:50 | 33.84621 | 67.98265 | 36446 ft | 399 kts | 309° |
| 2026-05-04 17:50 | 33.88104 | 67.93106 | 36452 ft | 399 kts | 309° |
| 2026-05-04 17:51 | 33.91623 | 67.87887 | 36451 ft | 400 kts | 309° |
| 2026-05-04 17:51 | 33.95109 | 67.82714 | 36450 ft | 399 kts | 309° |
| 2026-05-04 17:52 | 33.98594 | 67.77531 | 36459 ft | 399 kts | 309° |
| 2026-05-04 17:52 | 34.02072 | 67.72290 | 36473 ft | 400 kts | 309° |
| 2026-05-04 17:53 | 34.05516 | 67.67062 | 36468 ft | 399 kts | 308° |
| 2026-05-04 17:53 | 34.08956 | 67.61836 | 36470 ft | 400 kts | 309° |
| 2026-05-04 17:54 | 34.12397 | 67.56607 | 36471 ft | 399 kts | 309° |
| 2026-05-04 17:54 | 34.15849 | 67.51356 | 36465 ft | 399 kts | 308° |
| 2026-05-04 17:55 | 34.19282 | 67.46130 | 36465 ft | 398 kts | 308° |
| 2026-05-04 17:55 | 34.22713 | 67.40897 | 36446 ft | 398 kts | 309° |
| 2026-05-04 17:56 | 34.26163 | 67.35634 | 36461 ft | 398 kts | 308° |
| 2026-05-04 17:56 | 34.29575 | 67.30418 | 36463 ft | 396 kts | 308° |
| 2026-05-04 17:57 | 34.33000 | 67.25169 | 36459 ft | 399 kts | 308° |
| 2026-05-04 17:57 | 34.36410 | 67.19936 | 36470 ft | 397 kts | 308° |
| 2026-05-04 17:58 | 34.39835 | 67.14677 | 36486 ft | 398 kts | 308° |
| 2026-05-04 17:58 | 34.43245 | 67.09429 | 36496 ft | 397 kts | 308° |
| 2026-05-04 17:59 | 34.46641 | 67.04195 | 36501 ft | 397 kts | 308° |
| 2026-05-04 18:00 | 34.51752 | 66.96307 | 36500 ft | 397 kts | 308° |
| 2026-05-04 18:00 | 34.55134 | 66.91080 | 36492 ft | 397 kts | 308° |
| 2026-05-04 18:01 | 34.58536 | 66.85809 | 36503 ft | 398 kts | 308° |
| 2026-05-04 18:01 | 34.61947 | 66.80509 | 36497 ft | 398 kts | 308° |
| 2026-05-04 18:02 | 34.67019 | 66.72617 | 36502 ft | 396 kts | 308° |
| 2026-05-04 18:02 | 34.70408 | 66.67332 | 36496 ft | 397 kts | 308° |
| 2026-05-04 18:03 | 34.73781 | 66.62066 | 36512 ft | 397 kts | 308° |
| 2026-05-04 18:03 | 34.77158 | 66.56786 | 36511 ft | 396 kts | 308° |
| 2026-05-04 18:04 | 34.80534 | 66.51497 | 36513 ft | 396 kts | 308° |
| 2026-05-04 18:05 | 34.85588 | 66.43573 | 36504 ft | 396 kts | 308° |
| 2026-05-04 18:05 | 34.88954 | 66.38279 | 36515 ft | 396 kts | 308° |
| 2026-05-04 18:06 | 34.94004 | 66.30320 | 36509 ft | 396 kts | 307° |
| 2026-05-04 18:06 | 34.97370 | 66.25010 | 36523 ft | 397 kts | 307° |
| 2026-05-04 18:07 | 35.00698 | 66.19702 | 36522 ft | 396 kts | 307° |
| 2026-05-04 18:07 | 35.04031 | 66.14365 | 36511 ft | 396 kts | 307° |
| 2026-05-04 18:08 | 35.07339 | 66.09060 | 36497 ft | 395 kts | 307° |
| 2026-05-04 18:08 | 35.10662 | 66.03726 | 36483 ft | 395 kts | 307° |
| 2026-05-04 18:09 | 35.17302 | 65.93042 | 36468 ft | 396 kts | 307° |
| 2026-05-04 18:10 | 35.20597 | 65.87728 | 36447 ft | 394 kts | 307° |
| 2026-05-04 18:10 | 35.23903 | 65.82385 | 36442 ft | 394 kts | 307° |
| 2026-05-04 18:11 | 35.27216 | 65.77028 | 36416 ft | 394 kts | 307° |
| 2026-05-04 18:11 | 35.30502 | 65.71707 | 36436 ft | 393 kts | 307° |
| 2026-05-04 18:12 | 35.33786 | 65.66386 | 36416 ft | 394 kts | 307° |
| 2026-05-04 18:12 | 35.37078 | 65.61040 | 36392 ft | 393 kts | 307° |
| 2026-05-04 18:13 | 35.40365 | 65.55688 | 36390 ft | 393 kts | 307° |
| 2026-05-04 18:14 | 35.45279 | 65.47675 | 36371 ft | 394 kts | 307° |
| 2026-05-04 18:14 | 35.48553 | 65.42323 | 36363 ft | 393 kts | 307° |
| 2026-05-04 18:15 | 35.55121 | 65.31576 | 36337 ft | 394 kts | 306° |
| 2026-05-04 18:16 | 35.58403 | 65.26191 | 36331 ft | 394 kts | 306° |
| 2026-05-04 18:16 | 35.61669 | 65.20825 | 36293 ft | 392 kts | 306° |
| 2026-05-04 18:17 | 35.66571 | 65.12762 | 36256 ft | 393 kts | 306° |
| 2026-05-04 18:18 | 35.71471 | 65.04671 | 36247 ft | 394 kts | 306° |
| 2026-05-04 18:18 | 35.74730 | 64.99278 | 36231 ft | 393 kts | 306° |
| 2026-05-04 18:19 | 35.79625 | 64.91170 | 36198 ft | 393 kts | 306° |
| 2026-05-04 18:19 | 35.82872 | 64.85779 | 36162 ft | 392 kts | 306° |
| 2026-05-04 18:20 | 35.86126 | 64.80368 | 36126 ft | 394 kts | 306° |
| 2026-05-04 18:20 | 35.89389 | 64.74937 | 36132 ft | 394 kts | 306° |
| 2026-05-04 18:21 | 35.92627 | 64.69534 | 36104 ft | 393 kts | 306° |
| 2026-05-04 18:21 | 35.95899 | 64.64072 | 36077 ft | 394 kts | 306° |
| 2026-05-04 18:22 | 35.99143 | 64.58646 | 36066 ft | 394 kts | 306° |
| 2026-05-04 18:22 | 36.02371 | 64.53234 | 36043 ft | 394 kts | 306° |
| 2026-05-04 18:23 | 36.05618 | 64.47787 | 36042 ft | 394 kts | 306° |
| 2026-05-04 18:23 | 36.08850 | 64.42355 | 36030 ft | 394 kts | 306° |
| 2026-05-04 18:24 | 36.12101 | 64.36879 | 36031 ft | 394 kts | 306° |
| 2026-05-04 18:24 | 36.15334 | 64.31427 | 36024 ft | 394 kts | 305° |
| 2026-05-04 18:25 | 36.18591 | 64.26001 | 36021 ft | 394 kts | 306° |
| 2026-05-04 18:25 | 36.21936 | 64.20679 | 36019 ft | 394 kts | 307° |
| 2026-05-04 18:26 | 36.25300 | 64.15364 | 36023 ft | 393 kts | 307° |
| 2026-05-04 18:26 | 36.28680 | 64.09988 | 36023 ft | 394 kts | 307° |
| 2026-05-04 18:27 | 36.32008 | 64.04667 | 36032 ft | 393 kts | 307° |
| 2026-05-04 18:27 | 36.35361 | 63.99286 | 36033 ft | 393 kts | 307° |
| 2026-05-04 18:28 | 36.38690 | 63.93941 | 36038 ft | 394 kts | 307° |
| 2026-05-04 18:28 | 36.42013 | 63.88592 | 36037 ft | 393 kts | 307° |
| 2026-05-04 18:29 | 36.45344 | 63.83223 | 36035 ft | 393 kts | 307° |
| 2026-05-04 18:29 | 36.48684 | 63.77829 | 36035 ft | 393 kts | 306° |
| 2026-05-04 18:30 | 36.53670 | 63.69762 | 36029 ft | 394 kts | 306° |
| 2026-05-04 18:31 | 36.56998 | 63.64366 | 36026 ft | 393 kts | 306° |
| 2026-05-04 18:31 | 36.60316 | 63.58981 | 36019 ft | 394 kts | 307° |
| 2026-05-04 18:32 | 36.63639 | 63.53581 | 36012 ft | 393 kts | 307° |
| 2026-05-04 18:32 | 36.66952 | 63.48188 | 36010 ft | 394 kts | 307° |
| 2026-05-04 18:33 | 36.70260 | 63.42788 | 36005 ft | 394 kts | 306° |
| 2026-05-04 18:33 | 36.73583 | 63.37354 | 36003 ft | 394 kts | 306° |
| 2026-05-04 18:34 | 36.76902 | 63.31924 | 35999 ft | 393 kts | 306° |
| 2026-05-04 18:34 | 36.80192 | 63.26529 | 35995 ft | 393 kts | 306° |
| 2026-05-04 18:35 | 36.83494 | 63.21107 | 35995 ft | 393 kts | 306° |
| 2026-05-04 18:35 | 36.86804 | 63.15668 | 35991 ft | 394 kts | 306° |
| 2026-05-04 18:36 | 36.90096 | 63.10249 | 35988 ft | 394 kts | 306° |
| 2026-05-04 18:36 | 36.93394 | 63.04806 | 35985 ft | 393 kts | 306° |
| 2026-05-04 18:37 | 36.96706 | 62.99333 | 35984 ft | 394 kts | 306° |
| 2026-05-04 18:37 | 37.00000 | 62.93877 | 35977 ft | 394 kts | 306° |
| 2026-05-04 18:38 | 37.03280 | 62.88438 | 35970 ft | 394 kts | 306° |
| 2026-05-04 18:38 | 37.06576 | 62.82963 | 35965 ft | 395 kts | 306° |
| 2026-05-04 18:39 | 37.09877 | 62.77473 | 35960 ft | 395 kts | 306° |
| 2026-05-04 18:39 | 37.13167 | 62.71996 | 35961 ft | 394 kts | 306° |
| 2026-05-04 18:40 | 37.16444 | 62.66525 | 35959 ft | 395 kts | 306° |
| 2026-05-04 18:40 | 37.19741 | 62.61014 | 35950 ft | 394 kts | 306° |
| 2026-05-04 18:41 | 37.23016 | 62.55533 | 35944 ft | 394 kts | 306° |
| 2026-05-04 18:41 | 37.26297 | 62.50031 | 35942 ft | 395 kts | 306° |
| 2026-05-04 18:42 | 37.29565 | 62.44543 | 35940 ft | 394 kts | 306° |
| 2026-05-04 18:42 | 37.32842 | 62.39033 | 35941 ft | 395 kts | 306° |
| 2026-05-04 18:43 | 37.36108 | 62.33528 | 35938 ft | 395 kts | 305° |
| 2026-05-04 18:43 | 37.39395 | 62.27982 | 35940 ft | 394 kts | 305° |
| 2026-05-04 18:44 | 37.42640 | 62.22492 | 35942 ft | 395 kts | 305° |
| 2026-05-04 18:44 | 37.45906 | 62.16955 | 35938 ft | 393 kts | 305° |
| 2026-05-04 18:45 | 37.49163 | 62.11428 | 35938 ft | 394 kts | 305° |
| 2026-05-04 18:45 | 37.52431 | 62.05875 | 35935 ft | 394 kts | 305° |
| 2026-05-04 18:46 | 37.55674 | 62.00359 | 35937 ft | 394 kts | 305° |
| 2026-05-04 18:46 | 37.58907 | 61.94850 | 35931 ft | 393 kts | 305° |
| 2026-05-04 18:47 | 37.61613 | 61.88884 | 35932 ft | 393 kts | 292° |
| 2026-05-04 18:47 | 37.62958 | 61.82206 | 35928 ft | 394 kts | 281° |
| 2026-05-04 18:48 | 37.63666 | 61.75397 | 35930 ft | 394 kts | 279° |
| 2026-05-04 18:48 | 37.64297 | 61.68509 | 35929 ft | 395 kts | 279° |
| 2026-05-04 18:49 | 37.64937 | 61.61676 | 35929 ft | 394 kts | 279° |
| 2026-05-04 18:49 | 37.65592 | 61.54850 | 35930 ft | 394 kts | 279° |
| 2026-05-04 18:50 | 37.66254 | 61.47997 | 35928 ft | 393 kts | 279° |
| 2026-05-04 18:50 | 37.66913 | 61.41156 | 35928 ft | 393 kts | 279° |
| 2026-05-04 18:51 | 37.67567 | 61.34330 | 35926 ft | 392 kts | 278° |
| 2026-05-04 18:51 | 37.68215 | 61.27528 | 35920 ft | 392 kts | 279° |
| 2026-05-04 18:52 | 37.68856 | 61.20734 | 35912 ft | 391 kts | 278° |
| 2026-05-04 18:52 | 37.69496 | 61.13932 | 35911 ft | 391 kts | 278° |
| 2026-05-04 18:53 | 37.70133 | 61.07108 | 35910 ft | 390 kts | 278° |
| 2026-05-04 18:53 | 37.70761 | 61.00324 | 35908 ft | 390 kts | 278° |
| 2026-05-04 18:54 | 37.71387 | 60.93565 | 35907 ft | 390 kts | 278° |
| 2026-05-04 18:54 | 37.72017 | 60.86731 | 35906 ft | 391 kts | 278° |
| 2026-05-04 18:55 | 37.72633 | 60.79955 | 35903 ft | 391 kts | 278° |
| 2026-05-04 18:55 | 37.73557 | 60.69716 | 35904 ft | 392 kts | 278° |
| 2026-05-04 18:56 | 37.74168 | 60.62914 | 35902 ft | 391 kts | 278° |
| 2026-05-04 18:56 | 37.74773 | 60.56108 | 35902 ft | 392 kts | 278° |
| 2026-05-04 18:57 | 37.75436 | 60.49301 | 35900 ft | 391 kts | 280° |
| 2026-05-04 18:57 | 37.76283 | 60.42551 | 35903 ft | 391 kts | 281° |
| 2026-05-04 18:58 | 37.77157 | 60.35796 | 35898 ft | 392 kts | 281° |
| 2026-05-04 18:58 | 37.78015 | 60.28994 | 35897 ft | 391 kts | 280° |
| 2026-05-04 18:59 | 37.78433 | 60.25620 | 35639 ft | 388 kts | 280° |
| 2026-05-04 18:59 | 37.78846 | 60.22259 | 35146 ft | 385 kts | 280° |
| 2026-05-04 18:59 | 37.79254 | 60.18914 | 34519 ft | 385 kts | 280° |
| 2026-05-04 18:59 | 37.79659 | 60.15586 | 33913 ft | 383 kts | 280° |
| 2026-05-04 19:00 | 37.80058 | 60.12283 | 33457 ft | 379 kts | 280° |
| 2026-05-04 19:00 | 37.80456 | 60.08990 | 32960 ft | 376 kts | 280° |
| 2026-05-04 19:00 | 37.80843 | 60.05776 | 32466 ft | 373 kts | 280° |
| 2026-05-04 19:00 | 37.81234 | 60.02529 | 31955 ft | 371 kts | 280° |
| 2026-05-04 19:01 | 37.81619 | 59.99322 | 31448 ft | 369 kts | 280° |
| 2026-05-04 19:01 | 37.81997 | 59.96175 | 30946 ft | 367 kts | 281° |
| 2026-05-04 19:01 | 37.82379 | 59.92976 | 30434 ft | 365 kts | 281° |
| 2026-05-04 19:01 | 37.82758 | 59.89813 | 29930 ft | 362 kts | 281° |
| 2026-05-04 19:02 | 37.83131 | 59.86679 | 29414 ft | 360 kts | 281° |
| 2026-05-04 19:02 | 37.83499 | 59.83567 | 28904 ft | 358 kts | 281° |
| 2026-05-04 19:02 | 37.83866 | 59.80468 | 28399 ft | 356 kts | 281° |
| 2026-05-04 19:02 | 37.84228 | 59.77396 | 27895 ft | 353 kts | 281° |
| 2026-05-04 19:03 | 37.84584 | 59.74375 | 27395 ft | 351 kts | 281° |
| 2026-05-04 19:03 | 37.84942 | 59.71333 | 26897 ft | 349 kts | 281° |
| 2026-05-04 19:03 | 37.85297 | 59.68317 | 26411 ft | 346 kts | 281° |
| 2026-05-04 19:03 | 37.85648 | 59.65317 | 25923 ft | 346 kts | 281° |
| 2026-05-04 19:04 | 37.85998 | 59.62322 | 25435 ft | 349 kts | 281° |
| 2026-05-04 19:04 | 37.86356 | 59.59256 | 24929 ft | 349 kts | 281° |
| 2026-05-04 19:04 | 37.86702 | 59.56261 | 24430 ft | 347 kts | 281° |
| 2026-05-04 19:04 | 37.87046 | 59.53277 | 23933 ft | 344 kts | 281° |
| 2026-05-04 19:05 | 37.87392 | 59.50280 | 23435 ft | 341 kts | 281° |
| 2026-05-04 19:05 | 37.87730 | 59.47343 | 22950 ft | 338 kts | 281° |
| 2026-05-04 19:05 | 37.88065 | 59.44434 | 22472 ft | 336 kts | 281° |
| 2026-05-04 19:05 | 37.88402 | 59.41496 | 21981 ft | 333 kts | 281° |
| 2026-05-04 19:06 | 37.88728 | 59.38653 | 21506 ft | 330 kts | 280° |
| 2026-05-04 19:06 | 37.89066 | 59.35773 | 21041 ft | 328 kts | 281° |
| 2026-05-04 19:06 | 37.89512 | 59.32982 | 20574 ft | 325 kts | 285° |
| 2026-05-04 19:06 | 37.90094 | 59.30213 | 20093 ft | 323 kts | 287° |
| 2026-05-04 19:07 | 37.90713 | 59.27520 | 19626 ft | 322 kts | 287° |
| 2026-05-04 19:07 | 37.91345 | 59.24808 | 19145 ft | 320 kts | 287° |
| 2026-05-04 19:07 | 37.91963 | 59.22116 | 18684 ft | 318 kts | 287° |
| 2026-05-04 19:07 | 37.92571 | 59.19432 | 18221 ft | 317 kts | 287° |
| 2026-05-04 19:08 | 37.93168 | 59.16765 | 17758 ft | 315 kts | 287° |
| 2026-05-04 19:08 | 37.93757 | 59.14110 | 17316 ft | 314 kts | 287° |
| 2026-05-04 19:08 | 37.94342 | 59.11454 | 16856 ft | 312 kts | 287° |
| 2026-05-04 19:08 | 37.94922 | 59.08814 | 16394 ft | 311 kts | 287° |
| 2026-05-04 19:09 | 37.95496 | 59.06200 | 15948 ft | 310 kts | 287° |
| 2026-05-04 19:09 | 37.96074 | 59.03564 | 15494 ft | 309 kts | 287° |
| 2026-05-04 19:09 | 37.96643 | 59.00969 | 15053 ft | 308 kts | 287° |
| 2026-05-04 19:09 | 37.97213 | 58.98366 | 14593 ft | 306 kts | 287° |
| 2026-05-04 19:10 | 37.97778 | 58.95775 | 14160 ft | 303 kts | 287° |
| 2026-05-04 19:10 | 37.98330 | 58.93241 | 13761 ft | 303 kts | 287° |
| 2026-05-04 19:10 | 37.98894 | 58.90658 | 13273 ft | 303 kts | 287° |
| 2026-05-04 19:10 | 37.99451 | 58.88101 | 12831 ft | 300 kts | 287° |
| 2026-05-04 19:11 | 38.00002 | 58.85560 | 12423 ft | 299 kts | 287° |
| 2026-05-04 19:11 | 38.00555 | 58.83010 | 11950 ft | 298 kts | 286° |
| 2026-05-04 19:11 | 38.01104 | 58.80480 | 11504 ft | 297 kts | 286° |
| 2026-05-04 19:11 | 38.01645 | 58.77980 | 11091 ft | 296 kts | 286° |
| 2026-05-04 19:12 | 38.02185 | 58.75486 | 10754 ft | 293 kts | 286° |
| 2026-05-04 19:12 | 38.03249 | 58.70564 | 10159 ft | 283 kts | 286° |
| 2026-05-04 19:12 | 38.03753 | 58.68227 | 9993 ft | 273 kts | 286° |
| 2026-05-04 19:13 | 38.04252 | 58.65914 | 9653 ft | 272 kts | 286° |
| 2026-05-04 19:13 | 38.04748 | 58.63607 | 9281 ft | 272 kts | 286° |
| 2026-05-04 19:13 | 38.05242 | 58.61311 | 8930 ft | 270 kts | 286° |
| 2026-05-04 19:13 | 38.05741 | 58.58986 | 8574 ft | 270 kts | 286° |
| 2026-05-04 19:14 | 38.06232 | 58.56704 | 8222 ft | 269 kts | 286° |
| 2026-05-04 19:14 | 38.06718 | 58.54436 | 7891 ft | 268 kts | 286° |
| 2026-05-04 19:14 | 38.07210 | 58.52141 | 7527 ft | 268 kts | 285° |
| 2026-05-04 19:14 | 38.07693 | 58.49879 | 7161 ft | 267 kts | 285° |
| 2026-05-04 19:15 | 38.08174 | 58.47629 | 6841 ft | 266 kts | 285° |
| 2026-05-04 19:15 | 38.08659 | 58.45356 | 6485 ft | 266 kts | 285° |
| 2026-05-04 19:15 | 38.09101 | 58.43073 | 6086 ft | 268 kts | 282° |
| 2026-05-04 19:15 | 38.09457 | 58.40731 | 5697 ft | 269 kts | 280° |
| 2026-05-04 19:16 | 38.09763 | 58.38407 | 5347 ft | 269 kts | 279° |
| 2026-05-04 19:16 | 38.10067 | 58.36060 | 5004 ft | 269 kts | 280° |
| 2026-05-04 19:16 | 38.10378 | 58.33714 | 4645 ft | 269 kts | 279° |
| 2026-05-04 19:16 | 38.10691 | 58.31385 | 4327 ft | 268 kts | 279° |
| 2026-05-04 19:17 | 38.11002 | 58.29082 | 4083 ft | 263 kts | 279° |
| 2026-05-04 19:17 | 38.11310 | 58.26811 | 3920 ft | 256 kts | 279° |
| 2026-05-04 19:17 | 38.11612 | 58.24608 | 3673 ft | 254 kts | 281° |
| 2026-05-04 19:17 | 38.12084 | 58.22464 | 3426 ft | 249 kts | 288° |
| 2026-05-04 19:18 | 38.12612 | 58.20374 | 3211 ft | 242 kts | 283° |
| 2026-05-04 19:18 | 38.12661 | 58.18334 | 3192 ft | 226 kts | 254° |
| 2026-05-04 19:18 | 38.11906 | 58.16694 | 3185 ft | 208 kts | 219° |
| 2026-05-04 19:18 | 38.10677 | 58.15969 | 3185 ft | 189 kts | 185° |
| 2026-05-04 19:19 | 38.09434 | 58.16170 | 3192 ft | 179 kts | 153° |
| 2026-05-04 19:19 | 38.08461 | 58.17132 | 3212 ft | 175 kts | 130° |
| 2026-05-04 19:19 | 38.07671 | 58.18299 | 3274 ft | 174 kts | 127° |
| 2026-05-04 19:19 | 38.06927 | 58.19518 | 3250 ft | 176 kts | 125° |
| 2026-05-04 19:20 | 38.06153 | 58.20742 | 3069 ft | 178 kts | 126° |
| 2026-05-04 19:20 | 38.05484 | 58.22011 | 2841 ft | 171 kts | 119° |
| 2026-05-04 19:20 | 38.04902 | 58.23311 | 2605 ft | 163 kts | 118° |
| 2026-05-04 19:20 | 38.04371 | 58.24517 | 2393 ft | 152 kts | 118° |
| 2026-05-04 19:21 | 38.03863 | 58.25657 | 2208 ft | 147 kts | 118° |
| 2026-05-04 19:21 | 38.03363 | 58.26788 | 2019 ft | 147 kts | 118° |
| 2026-05-04 19:21 | 38.02859 | 58.27920 | 1826 ft | 147 kts | 119° |
| 2026-05-04 19:21 | 38.02362 | 58.29037 | 1635 ft | 147 kts | 119° |
| 2026-05-04 19:22 | 38.01862 | 58.30169 | 1442 ft | 147 kts | 119° |
| 2026-05-04 19:22 | 38.01353 | 58.31311 | 1248 ft | 147 kts | 119° |
| 2026-05-04 19:22 | 38.00847 | 58.32440 | 1054 ft | 147 kts | 119° |
| 2026-05-04 19:22 | 38.00354 | 58.33569 | 863 ft | 146 kts | 118° |
| 2026-05-04 19:23 | 37.99860 | 58.34684 | 701 ft | 147 kts | 119° |
| 2026-05-04 19:23 | 37.99419 | 58.35674 | 698 ft | 97 kts | 118° |
| 2026-05-04 19:23 | 37.99179 | 58.36216 | 699 ft | 51 kts | 120° |
| 2026-05-04 19:23 | 37.99022 | 58.36566 | 699 ft | 31 kts | 119° |
| 2026-05-04 19:24 | 37.98941 | 58.36739 | 700 ft | 10 kts | 135° |
| 2026-05-04 19:24 | 37.98878 | 58.36747 | 700 ft | 9 kts | 203° |
| 2026-05-04 19:24 | 37.98822 | 58.36709 | 700 ft | 8 kts | 211° |
| 2026-05-04 19:24 | 37.98773 | 58.36676 | 700 ft | 7 kts | 198° |
| 2026-05-04 19:25 | 37.98724 | 58.36662 | 700 ft | 7 kts | 196° |
| 2026-05-04 19:25 | 37.98671 | 58.36649 | 701 ft | 7 kts | 169° |
| 2026-05-04 19:25 | 37.98629 | 58.36691 | 701 ft | 8 kts | 118° |
| 2026-05-04 19:25 | 37.98589 | 58.36782 | 701 ft | 13 kts | 119° |
| 2026-05-04 19:26 | 37.98542 | 58.36885 | 701 ft | 13 kts | 120° |
| 2026-05-04 19:26 | 37.98502 | 58.36982 | 701 ft | 10 kts | 117° |
| 2026-05-04 19:26 | 37.98473 | 58.37048 | 701 ft | 5 kts | 124° |
| 2026-05-04 19:26 | 37.98448 | 58.37059 | 701 ft | 3 kts | 193° |
| 2026-05-04 19:27 | 37.98422 | 58.37042 | 701 ft | 4 kts | 209° |
| 2026-05-04 19:27 | 37.98401 | 58.37027 | 701 ft | 3 kts | 208° |
| 2026-05-04 19:27 | 37.98385 | 58.37016 | 701 ft | 2 kts | 208° |
| 2026-05-04 19:27 | 37.98375 | 58.37009 | 701 ft | 1 kts | 208° |
| 2026-05-04 19:28 | 37.98371 | 58.37006 | 701 ft | 0 kts | 208° |
| 2026-05-04 19:28 | 37.98368 | 58.37004 | 701 ft | 0 kts | 208° |